Terminal Aerodrome Forecast
Issued by NWS Blacksburg, VA

Home | Current Version | Previous Version | Text Only | Print | Product List | Glossary On
Versions: 1 2 3 4 5 6 7 8 9 10 11 12 13 14 15 16 17 18 19 20 21 22 23 24 25 26 27 28 29 30 31 32 33 34 35 36 37 38 39
408
FTUS41 KRNK 221140
TAFROA
TAF
KROA 221140Z 2212/2312 00000KT 5SM BR BKN009 OVC024
     FM221400 10004KT 6SM -RA BR SCT008 OVC015
     FM221600 10005KT 3SM -RA BR OVC008
     FM221900 09005KT 6SM BR OVC008
     FM230100 09007KT 3SM RA BR SCT007 OVC013
     FM230400 07008G16KT 1SM SHRA BR SCT003 OVC008
     FM231000 09006KT 3SM -RA BR OVC004=

USA.gov is the U.S. government's official web portal to all federal, state and local government web resources and services.